CheckWX is a tool to help pilots better visualize weather data.  It is not intended as a substitute for an official pre-flight weather briefing.

21:47:13 UTC

CYPG TAF
Portage La Prairie Airport
Portage, Canada
TAF CYPG 201732Z 2018/2106 32010KT P6SM SKC FM202000 27010KT P6SM SCT250 BECMG 2023/2101 23008KT RMK NXT FCST BY 210000Z

Mar-20@
18:00 UTC

Mar-20 @ 18:00 UTC

Mar-20@
20:00 UTC

Mar-20 @ 20:00 UTC

TAF CYPG 201732Z 2018/2106 32010KT P6SM SKC

Expired

Wind
  • 320° at 10 KTS
Cloud Levels
  • Clear skies

Mar-20@
20:00 UTC

Mar-20 @ 20:00 UTC

Mar-20@
23:00 UTC

Mar-20 @ 23:00 UTC

FM202000 27010KT P6SM SCT250

From

From Standard forecast or significant change

Wind
  • 270° at 10 KTS
Cloud Levels
  • Scattered at 25,000' AGL

Mar-20@
23:00 UTC

Mar-20 @ 23:00 UTC

Mar-21@
06:00 UTC

Mar-21 @ 06:00 UTC

BECMG 2023/2101 23008KT RMK NXT FCST BY 210000Z

Becoming

Becoming Conditions expected by Thu, Mar 21, 2019 @ 01:00 UTC

Wind
  • 230° at 8 KTS
Cloud Levels
  • Scattered at 25,000' AGL